Time;durP1;ratioP1;P1;durP2;ratioP2;P2;SDS_P1;SDS_P2;PMS_P1;PMS_P2;Temp;Humidity;BMP_temperature;BMP_pressure;BME280_temperature;BME280_humidity;BME280_pressure;Samples;Min_cycle;Max_cycle;Signal;HPM_P1;HPM_P2
2022/01/11 00:01:18;;;;;;;90.93;27.15;;;0.40;99.90;;;;;;5002519;28;20100;-39
2022/01/11 00:03:45;;;;;;;143.18;29.25;;;0.40;99.90;;;;;;5011652;28;20136;-40
2022/01/11 00:06:25;;;;;;;137.27;29.00;;;0.50;99.90;;;;;;5005853;28;20117;-39
2022/01/11 00:08:54;;;;;;;113.25;27.55;;;0.50;99.90;;;;;;4989364;28;20046;-39
2022/01/11 00:11:21;;;;;;;76.95;25.95;;;0.50;99.90;;;;;;4994717;28;20068;-39
2022/01/11 00:13:48;;;;;;;83.82;28.48;;;0.40;99.90;;;;;;4994990;28;20529;-39
2022/01/11 00:16:17;;;;;;;96.20;28.75;;;0.40;99.90;;;;;;4994763;28;20056;-39
2022/01/11 00:18:44;;;;;;;104.60;28.10;;;0.30;99.90;;;;;;4998526;28;20078;-39
2022/01/11 00:21:11;;;;;;;61.03;29.33;;;0.30;99.90;;;;;;4986420;28;20133;-39
2022/01/11 00:26:22;;;;;;;112.63;29.75;;;0.30;99.90;;;;;;4991316;28;20491;-40
2022/01/11 00:28:49;;;;;;;76.95;27.80;;;0.20;99.90;;;;;;4997163;28;20084;-39
2022/01/11 00:31:19;;;;;;;67.70;27.52;;;0.20;99.90;;;;;;4994064;28;20561;-40
2022/01/11 00:33:46;;;;;;;80.07;27.90;;;0.30;99.90;;;;;;4994465;28;20046;-39
2022/01/11 00:36:13;;;;;;;84.93;29.00;;;0.30;99.90;;;;;;4992729;28;20061;-40
2022/01/11 00:38:41;;;;;;;132.48;30.67;;;0.20;99.90;;;;;;4994158;28;20061;-40
2022/01/11 00:41:09;;;;;;;93.50;29.38;;;0.20;99.90;;;;;;4994405;28;20414;-39
2022/01/11 00:43:36;;;;;;;115.05;30.50;;;0.20;99.90;;;;;;4975060;28;20058;-40
2022/01/11 00:46:03;;;;;;;73.15;30.13;;;0.20;99.90;;;;;;4979100;28;20446;-40
2022/01/11 00:48:32;;;;;;;112.22;30.60;;;0.20;99.90;;;;;;5001860;28;20105;-40
2022/01/11 00:51:00;;;;;;;107.53;31.65;;;0.20;99.90;;;;;;5002255;28;20050;-40
2022/01/11 00:53:27;;;;;;;120.93;32.03;;;0.20;99.90;;;;;;5011602;28;20050;-40
2022/01/11 00:55:54;;;;;;;59.55;28.95;;;0.30;99.90;;;;;;4993450;28;20130;-40
2022/01/11 00:58:22;;;;;;;185.52;31.75;;;0.30;99.90;;;;;;4991981;28;20133;-40
2022/01/11 01:00:49;;;;;;;118.40;31.42;;;0.30;99.90;;;;;;4992584;28;20042;-40
2022/01/11 01:03:16;;;;;;;66.15;29.70;;;0.30;99.90;;;;;;4995034;28;20150;-40
2022/01/11 01:05:45;;;;;;;97.00;30.67;;;0.30;99.90;;;;;;4993936;28;20049;-40
2022/01/11 01:08:12;;;;;;;70.03;29.92;;;0.30;99.90;;;;;;4991867;28;20442;-40
2022/01/11 01:10:40;;;;;;;111.38;28.45;;;0.30;99.90;;;;;;4988075;28;20092;-40
2022/01/11 01:13:09;;;;;;;77.47;29.25;;;0.30;99.90;;;;;;4994913;28;20057;-40
2022/01/11 01:15:36;;;;;;;86.93;29.95;;;0.30;99.90;;;;;;4994225;28;20046;-40
2022/01/11 01:18:03;;;;;;;134.05;27.48;;;0.30;99.90;;;;;;4991872;28;20057;-40
2022/01/11 01:20:30;;;;;;;71.00;27.80;;;0.20;99.90;;;;;;4992256;28;20141;-40
2022/01/11 01:22:59;;;;;;;54.58;26.23;;;0.20;99.90;;;;;;5017496;28;20046;-40
2022/01/11 01:25:26;;;;;;;68.53;29.02;;;0.20;99.90;;;;;;4997358;28;20141;-40
2022/01/11 01:27:53;;;;;;;70.28;28.88;;;0.20;99.90;;;;;;4993031;28;20413;-40
2022/01/11 01:30:21;;;;;;;72.30;27.58;;;0.20;99.90;;;;;;4991632;28;20054;-40
2022/01/11 01:32:48;;;;;;;60.70;28.30;;;0.20;99.90;;;;;;4993682;28;20052;-40
2022/01/11 01:35:15;;;;;;;66.32;29.83;;;0.20;99.90;;;;;;4993208;28;20157;-40
2022/01/11 01:37:42;;;;;;;66.10;29.58;;;0.20;99.90;;;;;;4993315;28;20054;-40
2022/01/11 01:40:13;;;;;;;67.47;26.80;;;0.20;99.90;;;;;;5010506;28;20092;-40
2022/01/11 01:42:40;;;;;;;145.57;30.48;;;0.20;99.90;;;;;;5010520;28;20093;-40
2022/01/11 01:45:07;;;;;;;155.00;29.50;;;0.20;99.90;;;;;;5011970;28;20149;-40
2022/01/11 01:47:34;;;;;;;128.85;31.08;;;0.10;99.90;;;;;;5009497;28;20050;-40
2022/01/11 01:50:02;;;;;;;114.68;31.27;;;0.10;99.90;;;;;;4990697;28;20058;-40
2022/01/11 01:52:30;;;;;;;76.35;30.95;;;0.10;99.90;;;;;;4992455;28;20058;-40
2022/01/11 01:54:57;;;;;;;119.85;33.80;;;0.10;99.90;;;;;;5008773;28;20574;-40
2022/01/11 01:57:25;;;;;;;119.97;31.60;;;0.10;99.90;;;;;;4992955;28;20088;-40
2022/01/11 01:59:52;;;;;;;115.47;31.08;;;0.10;99.90;;;;;;4993834;28;20117;-40
2022/01/11 02:02:19;;;;;;;106.90;31.20;;;0.10;99.90;;;;;;4992096;28;20058;-40
2022/01/11 02:04:47;;;;;;;95.05;29.95;;;0.10;99.90;;;;;;5001588;28;20138;-40
2022/01/11 02:07:14;;;;;;;135.23;31.65;;;0.10;99.90;;;;;;4991400;28;20078;-40
2022/01/11 02:09:41;;;;;;;102.35;31.17;;;0.00;99.90;;;;;;4992099;28;20511;-39
2022/01/11 02:12:09;;;;;;;170.82;32.40;;;0.00;99.90;;;;;;4999641;28;20680;-40
2022/01/11 02:14:37;;;;;;;117.63;31.52;;;0.00;99.90;;;;;;4996838;28;20129;-39
2022/01/11 02:17:05;;;;;;;119.07;33.50;;;0.00;99.90;;;;;;5008375;28;20061;-40
2022/01/11 02:19:35;;;;;;;95.85;31.95;;;0.00;99.90;;;;;;5008423;28;20133;-39
2022/01/11 02:22:04;;;;;;;162.20;31.33;;;0.00;99.90;;;;;;4999351;28;20088;-40
2022/01/11 02:24:33;;;;;;;90.95;29.10;;;0.00;99.90;;;;;;5000372;28;20078;-40
2022/01/11 02:27:00;;;;;;;85.47;30.48;;;0.00;99.90;;;;;;5016381;28;20483;-40
2022/01/11 02:29:27;;;;;;;95.13;30.77;;;0.00;99.90;;;;;;5007840;28;20473;-40
2022/01/11 02:31:54;;;;;;;81.60;29.25;;;0.00;99.90;;;;;;5000272;28;20569;-40
2022/01/11 02:34:21;;;;;;;110.68;32.08;;;0.10;99.90;;;;;;5009032;28;20057;-40
2022/01/11 02:36:48;;;;;;;160.50;33.78;;;0.10;99.90;;;;;;5007067;28;20466;-40
2022/01/11 02:39:17;;;;;;;126.38;30.90;;;0.10;99.90;;;;;;5022959;28;20054;-40
2022/01/11 02:41:55;;;;;;;88.47;29.55;;;0.00;99.90;;;;;;5008550;28;20153;-40
2022/01/11 02:44:22;;;;;;;124.70;30.38;;;0.00;99.90;;;;;;5004764;28;20045;-40
2022/01/11 02:46:49;;;;;;;147.98;34.05;;;0.00;99.90;;;;;;5004792;28;20482;-40
2022/01/11 02:49:16;;;;;;;152.35;33.80;;;0.00;99.90;;;;;;5007462;28;20050;-39
2022/01/11 02:51:43;;;;;;;136.85;33.50;;;0.00;99.90;;;;;;5007165;28;20410;-40
2022/01/11 02:54:10;;;;;;;144.32;33.72;;;0.00;99.90;;;;;;5005962;28;20081;-40
2022/01/11 02:56:38;;;;;;;148.80;33.60;;;0.00;99.90;;;;;;5020358;28;20082;-40
2022/01/11 02:59:05;;;;;;;175.15;32.72;;;0.00;99.90;;;;;;5011213;28;20081;-40
2022/01/11 03:01:32;;;;;;;183.07;32.78;;;0.00;99.90;;;;;;5011063;28;20079;-40
2022/01/11 03:03:59;;;;;;;177.48;35.30;;;0.00;99.90;;;;;;5008902;28;20050;-40
2022/01/11 03:06:28;;;;;;;146.18;33.15;;;0.00;99.90;;;;;;5001554;28;20047;-40
2022/01/11 03:08:55;;;;;;;141.07;34.40;;;0.00;99.90;;;;;;5006974;28;20089;-39
2022/01/11 03:11:24;;;;;;;171.48;34.67;;;0.00;99.90;;;;;;5024028;28;20092;-39
2022/01/11 03:13:53;;;;;;;148.45;36.58;;;0.00;99.90;;;;;;5013677;28;20058;-40
2022/01/11 03:16:20;;;;;;;144.95;35.80;;;0.10;99.90;;;;;;5008414;28;20530;-40
2022/01/11 03:18:47;;;;;;;128.13;30.38;;;0.10;99.90;;;;;;5006245;28;20054;-40
2022/01/11 03:21:15;;;;;;;123.38;30.65;;;0.10;99.90;;;;;;5006159;28;20046;-40
2022/01/11 03:23:42;;;;;;;159.90;32.88;;;0.10;99.90;;;;;;5009312;28;20046;-40
2022/01/11 03:26:09;;;;;;;162.50;33.10;;;0.10;99.90;;;;;;5005293;28;20082;-40
2022/01/11 03:28:36;;;;;;;108.90;30.75;;;0.10;99.90;;;;;;4999662;28;20139;-40
2022/01/11 03:31:04;;;;;;;107.35;33.30;;;0.10;99.90;;;;;;5000672;28;20051;-40
2022/01/11 03:33:31;;;;;;;143.07;32.00;;;0.10;99.90;;;;;;5004538;28;20052;-40
2022/01/11 03:35:58;;;;;;;114.43;32.53;;;0.10;99.90;;;;;;5003186;28;20089;-40
2022/01/11 03:38:25;;;;;;;135.43;32.22;;;0.10;99.90;;;;;;4998139;28;20064;-40
2022/01/11 03:40:52;;;;;;;89.80;30.73;;;0.10;99.90;;;;;;5009482;28;20077;-39
2022/01/11 03:43:22;;;;;;;116.22;35.03;;;0.10;99.90;;;;;;5004367;28;20538;-40
2022/01/11 03:45:50;;;;;;;112.72;33.80;;;0.10;99.90;;;;;;5001387;28;20062;-39
2022/01/11 03:48:18;;;;;;;118.82;34.20;;;0.10;99.90;;;;;;5005417;28;20124;-40
2022/01/11 03:50:50;;;;;;;103.70;34.88;;;0.10;99.90;;;;;;5009317;28;20058;-40
2022/01/11 03:53:18;;;;;;;95.95;35.00;;;0.10;99.90;;;;;;4997446;28;20057;-40
2022/01/11 03:55:58;;;;;;;110.15;35.45;;;0.20;99.90;;;;;;5006046;28;20495;-40
2022/01/11 03:58:26;;;;;;;102.15;32.85;;;0.10;99.90;;;;;;5004155;28;20064;-40
2022/01/11 04:00:53;;;;;;;92.60;34.55;;;0.20;99.90;;;;;;5000626;28;20050;-39
2022/01/11 04:03:22;;;;;;;97.45;36.60;;;0.20;99.90;;;;;;5007173;28;20141;-40
2022/01/11 04:05:49;;;;;;;95.65;35.20;;;0.20;99.90;;;;;;5007136;28;20532;-40
2022/01/11 04:08:16;;;;;;;122.72;37.67;;;0.20;99.90;;;;;;5004294;28;20100;-40
2022/01/11 04:10:43;;;;;;;103.38;35.17;;;0.20;99.90;;;;;;5000624;28;20133;-40
2022/01/11 04:13:10;;;;;;;118.63;38.25;;;0.20;99.90;;;;;;5024898;28;20088;-39
2022/01/11 04:15:37;;;;;;;96.32;34.78;;;0.20;99.90;;;;;;5005006;28;20058;-40
2022/01/11 04:18:04;;;;;;;118.30;38.88;;;0.20;99.90;;;;;;5023645;28;20474;-40
2022/01/11 04:20:32;;;;;;;110.60;38.60;;;0.30;99.90;;;;;;5006351;28;20045;-40
2022/01/11 04:22:59;;;;;;;103.85;39.38;;;0.30;99.90;;;;;;5006495;28;21808;-39
2022/01/11 04:25:26;;;;;;;130.50;41.10;;;0.30;99.90;;;;;;5006741;28;20046;-40
2022/01/11 04:27:53;;;;;;;105.22;39.42;;;0.30;99.90;;;;;;5022938;28;20129;-39
2022/01/11 04:30:20;;;;;;;102.18;36.15;;;0.30;99.90;;;;;;5005363;28;20042;-40
2022/01/11 04:32:48;;;;;;;112.72;41.13;;;0.30;99.90;;;;;;5006913;28;20069;-39
2022/01/11 04:35:16;;;;;;;98.30;39.13;;;0.30;99.90;;;;;;5008390;28;20078;-40
2022/01/11 04:37:45;;;;;;;98.63;38.58;;;0.30;99.90;;;;;;4993623;28;20050;-39
2022/01/11 04:40:15;;;;;;;110.22;40.08;;;0.30;99.90;;;;;;4992130;28;20078;-40
2022/01/11 04:42:42;;;;;;;115.40;40.20;;;0.30;99.90;;;;;;4991352;28;20058;-39
2022/01/11 04:45:11;;;;;;;119.55;41.83;;;0.30;99.90;;;;;;4992479;28;20086;-40
2022/01/11 04:47:37;;;;;;;120.78;38.58;;;0.30;99.90;;;;;;4992202;28;20133;-40
2022/01/11 04:50:05;;;;;;;116.90;39.55;;;0.30;99.90;;;;;;4996647;28;20525;-39
2022/01/11 04:52:32;;;;;;;131.57;42.95;;;0.30;99.90;;;;;;5003690;28;20442;-39
2022/01/11 04:55:00;;;;;;;98.65;38.13;;;0.30;99.90;;;;;;5021704;28;20053;-39
2022/01/11 04:57:27;;;;;;;111.65;41.47;;;0.30;99.90;;;;;;5020727;28;20401;-39
2022/01/11 04:59:54;;;;;;;100.28;40.05;;;0.30;99.90;;;;;;5003531;28;20046;-40
2022/01/11 05:02:22;;;;;;;87.90;38.75;;;0.30;99.90;;;;;;5004776;28;20050;-40
2022/01/11 05:04:49;;;;;;;93.10;37.30;;;0.30;99.90;;;;;;5000004;28;20049;-40
2022/01/11 05:07:16;;;;;;;99.47;40.80;;;0.30;99.90;;;;;;5010505;28;20077;-40
2022/01/11 05:09:43;;;;;;;90.55;38.05;;;0.40;99.90;;;;;;5011529;28;20046;-39
2022/01/11 05:12:13;;;;;;;79.53;36.30;;;0.40;99.90;;;;;;5003023;28;20140;-39
2022/01/11 05:14:40;;;;;;;93.32;37.53;;;0.40;99.90;;;;;;5003839;28;20045;-39
2022/01/11 05:17:07;;;;;;;94.32;40.08;;;0.40;99.90;;;;;;4999036;28;20080;-39
2022/01/11 05:19:35;;;;;;;89.22;37.47;;;0.40;99.90;;;;;;5005726;28;20078;-39
2022/01/11 05:22:02;;;;;;;96.22;38.83;;;0.40;99.90;;;;;;5002212;28;20062;-39
2022/01/11 05:24:29;;;;;;;92.47;37.72;;;0.40;99.90;;;;;;4996743;28;20081;-39
2022/01/11 05:26:56;;;;;;;93.57;38.17;;;0.40;99.90;;;;;;5003120;28;20052;-40
2022/01/11 05:29:24;;;;;;;89.38;37.38;;;0.40;99.90;;;;;;5001485;28;20046;-40
2022/01/11 05:31:51;;;;;;;96.32;38.88;;;0.40;99.90;;;;;;4997609;28;20058;-40
2022/01/11 05:34:18;;;;;;;94.20;38.50;;;0.40;99.90;;;;;;5017783;28;20049;-39
2022/01/11 05:36:48;;;;;;;97.88;39.35;;;0.40;99.90;;;;;;4993839;28;20510;-40
2022/01/11 05:39:15;;;;;;;87.53;38.25;;;0.40;99.90;;;;;;4997752;28;20050;-39
2022/01/11 05:41:42;;;;;;;81.57;34.22;;;0.40;99.90;;;;;;4990322;28;20500;-39
2022/01/11 05:44:09;;;;;;;87.88;37.83;;;0.40;99.90;;;;;;5013189;28;20495;-39
2022/01/11 05:46:37;;;;;;;99.25;37.25;;;0.40;99.90;;;;;;4997009;28;20054;-39
2022/01/11 05:49:04;;;;;;;90.28;38.00;;;0.40;99.90;;;;;;5008993;28;20054;-39
2022/01/11 05:51:31;;;;;;;87.43;36.97;;;0.40;99.90;;;;;;4994158;28;20073;-39
2022/01/11 05:53:58;;;;;;;74.22;33.55;;;0.40;99.90;;;;;;4986839;28;20073;-39
2022/01/11 05:56:25;;;;;;;79.68;36.10;;;0.40;99.90;;;;;;4998351;28;20073;-39
2022/01/11 05:58:52;;;;;;;85.43;35.60;;;0.40;99.90;;;;;;4990395;28;20054;-39
2022/01/11 06:01:19;;;;;;;85.05;34.67;;;0.40;99.90;;;;;;4989379;28;20050;-39
2022/01/11 06:03:48;;;;;;;84.32;35.42;;;0.40;99.90;;;;;;4988872;28;20521;-39
2022/01/11 06:06:15;;;;;;;78.38;35.10;;;0.50;99.90;;;;;;4988182;28;20085;-39
2022/01/11 06:08:42;;;;;;;77.88;35.33;;;0.40;99.90;;;;;;4983897;28;20240;-39
2022/01/11 06:11:09;;;;;;;81.97;34.92;;;0.40;99.90;;;;;;4990508;28;20064;-39
2022/01/11 06:13:36;;;;;;;75.22;35.33;;;0.40;99.90;;;;;;4975079;28;20047;-39
2022/01/11 06:16:03;;;;;;;75.15;34.42;;;0.40;99.90;;;;;;4996329;28;20130;-39
2022/01/11 06:18:30;;;;;;;72.30;33.15;;;0.40;99.90;;;;;;4971403;28;20522;-39
2022/01/11 06:20:59;;;;;;;69.30;32.55;;;0.40;99.90;;;;;;4984612;28;20046;-39
2022/01/11 06:23:26;;;;;;;77.00;33.70;;;0.40;99.90;;;;;;5001706;28;20049;-39
2022/01/11 06:25:53;;;;;;;79.68;34.15;;;0.40;99.90;;;;;;4996953;28;20137;-40
2022/01/11 06:28:20;;;;;;;75.65;34.15;;;0.30;99.90;;;;;;4971879;28;20050;-40
2022/01/11 06:30:47;;;;;;;75.32;34.33;;;0.40;99.90;;;;;;4998826;28;20129;-40
2022/01/11 06:33:14;;;;;;;75.15;32.80;;;0.30;99.90;;;;;;4999846;28;20077;-40
2022/01/11 06:35:41;;;;;;;76.35;33.83;;;0.30;99.90;;;;;;4991549;28;20090;-40
2022/01/11 06:38:10;;;;;;;74.13;32.60;;;0.30;99.90;;;;;;4994926;28;20057;-40
2022/01/11 06:40:37;;;;;;;75.85;32.60;;;0.30;99.90;;;;;;5006334;28;20462;-40
2022/01/11 06:43:04;;;;;;;77.57;33.00;;;0.30;99.90;;;;;;5001958;28;20045;-40
2022/01/11 06:45:31;;;;;;;73.07;31.70;;;0.30;99.90;;;;;;5019077;28;20050;-40
2022/01/11 06:47:59;;;;;;;65.80;32.00;;;0.30;99.90;;;;;;4996932;28;20050;-40
2022/01/11 06:50:26;;;;;;;67.95;29.52;;;0.30;99.90;;;;;;5020851;28;20069;-40
2022/01/11 06:52:53;;;;;;;62.80;28.67;;;0.30;99.90;;;;;;4999836;28;20108;-40
2022/01/11 06:55:22;;;;;;;70.13;29.83;;;0.30;99.90;;;;;;4999067;28;20068;-40
2022/01/11 06:57:49;;;;;;;58.63;28.80;;;0.30;99.90;;;;;;5002154;28;20413;-40
2022/01/11 07:00:16;;;;;;;56.58;27.98;;;0.30;99.90;;;;;;4995061;28;20090;-40
2022/01/11 07:02:46;;;;;;;57.30;27.25;;;0.30;99.90;;;;;;5000354;28;20402;-40
2022/01/11 07:05:13;;;;;;;61.33;28.08;;;0.30;99.90;;;;;;4995658;28;20132;-40
2022/01/11 07:07:40;;;;;;;57.95;28.02;;;0.30;99.90;;;;;;5001020;28;20052;-39
2022/01/11 07:10:08;;;;;;;58.60;28.33;;;0.30;99.90;;;;;;5002624;28;20513;-39
2022/01/11 07:12:36;;;;;;;56.85;27.95;;;0.30;99.90;;;;;;5004585;28;20096;-39
2022/01/11 07:15:03;;;;;;;57.97;27.67;;;0.30;99.90;;;;;;4991170;28;20058;-39
2022/01/11 07:17:30;;;;;;;54.22;25.17;;;0.30;99.90;;;;;;4990745;28;20089;-39
2022/01/11 07:19:57;;;;;;;47.08;22.48;;;0.20;99.90;;;;;;4988144;28;20082;-39
2022/01/11 07:22:24;;;;;;;57.50;26.02;;;0.30;99.90;;;;;;4993720;28;20135;-39
2022/01/11 07:24:51;;;;;;;55.10;24.95;;;0.30;99.90;;;;;;5003070;28;20557;-39
2022/01/11 07:27:18;;;;;;;51.17;24.85;;;0.20;99.90;;;;;;5001248;28;20065;-39
2022/01/11 07:29:47;;;;;;;57.60;26.15;;;0.20;99.90;;;;;;5004012;28;20534;-39
2022/01/11 07:32:14;;;;;;;53.55;25.35;;;0.20;99.90;;;;;;5005421;28;20133;-39
2022/01/11 07:34:41;;;;;;;60.47;27.55;;;0.20;99.90;;;;;;5001171;28;20128;-39
2022/01/11 07:37:08;;;;;;;54.53;25.58;;;0.20;99.90;;;;;;5006005;28;20506;-39
2022/01/11 07:39:35;;;;;;;49.53;24.83;;;0.20;99.90;;;;;;5005188;28;20046;-39
2022/01/11 07:42:05;;;;;;;53.00;25.67;;;0.30;99.90;;;;;;5005529;28;20362;-39
2022/01/11 07:44:32;;;;;;;52.33;25.73;;;0.20;99.90;;;;;;4997299;28;20046;-39
2022/01/11 07:47:02;;;;;;;53.28;25.55;;;0.30;99.90;;;;;;5015316;28;20052;-39
2022/01/11 07:49:29;;;;;;;57.70;27.13;;;0.20;99.90;;;;;;5006064;28;20050;-39
2022/01/11 07:51:56;;;;;;;54.40;24.60;;;0.30;99.90;;;;;;5007096;28;20050;-39
2022/01/11 07:54:23;;;;;;;54.33;24.55;;;0.20;99.90;;;;;;5001092;28;20407;-39
2022/01/11 07:56:50;;;;;;;46.10;23.02;;;0.30;99.90;;;;;;5006682;28;20321;-39
2022/01/11 07:59:17;;;;;;;51.95;24.95;;;0.30;99.90;;;;;;4999023;28;20081;-39
2022/01/11 08:01:44;;;;;;;46.80;23.58;;;0.20;99.90;;;;;;4992057;28;20320;-39
2022/01/11 08:04:12;;;;;;;45.45;21.33;;;0.20;99.90;;;;;;4992402;28;20081;-39
2022/01/11 08:06:39;;;;;;;43.13;23.00;;;0.20;99.90;;;;;;4994937;28;20055;-39
2022/01/11 08:09:07;;;;;;;46.05;24.15;;;0.20;99.90;;;;;;4991857;28;20145;-39
2022/01/11 08:11:34;;;;;;;44.58;23.92;;;0.20;99.90;;;;;;4998961;28;20058;-39
2022/01/11 08:14:01;;;;;;;45.38;21.95;;;0.20;99.90;;;;;;5005492;28;20137;-39
2022/01/11 08:16:28;;;;;;;46.45;22.33;;;0.20;99.90;;;;;;4998555;28;20050;-39
2022/01/11 08:18:55;;;;;;;40.08;21.25;;;0.20;99.90;;;;;;4992526;28;20483;-39
2022/01/11 08:21:24;;;;;;;37.55;20.67;;;0.20;99.90;;;;;;4988669;28;20061;-39
2022/01/11 08:23:51;;;;;;;39.22;21.95;;;0.20;99.90;;;;;;4987318;28;20038;-39
2022/01/11 08:26:18;;;;;;;42.20;21.42;;;0.20;99.90;;;;;;5007590;28;20134;-39
2022/01/11 08:28:45;;;;;;;39.35;22.15;;;0.20;99.90;;;;;;5021878;28;20129;-39
2022/01/11 08:31:12;;;;;;;43.53;22.38;;;0.20;99.90;;;;;;4980690;28;20098;-39
2022/01/11 08:33:39;;;;;;;58.05;27.92;;;0.20;99.90;;;;;;5014991;28;20096;-39
2022/01/11 08:36:06;;;;;;;39.88;22.27;;;0.20;99.90;;;;;;4994051;28;20512;-39
2022/01/11 08:38:35;;;;;;;43.13;21.73;;;0.20;99.90;;;;;;5013529;28;20050;-40
2022/01/11 08:41:02;;;;;;;45.53;21.45;;;0.20;99.90;;;;;;4990425;28;20113;-38
2022/01/11 08:43:29;;;;;;;41.53;20.08;;;0.30;99.90;;;;;;4985844;28;20500;-39
2022/01/11 08:45:56;;;;;;;39.83;21.63;;;0.30;99.90;;;;;;4988868;28;20133;-39
2022/01/11 08:48:23;;;;;;;41.03;20.10;;;0.30;99.90;;;;;;5003054;28;20184;-39
2022/01/11 08:50:53;;;;;;;33.25;17.65;;;0.30;99.90;;;;;;4989489;28;21611;-39
2022/01/11 08:53:20;;;;;;;38.58;20.23;;;0.30;99.90;;;;;;4992545;28;20057;-39
2022/01/11 08:55:49;;;;;;;39.97;21.17;;;0.30;99.90;;;;;;4997034;28;20157;-39
2022/01/11 08:58:16;;;;;;;39.95;21.70;;;0.30;99.90;;;;;;5003249;28;20092;-39
2022/01/11 09:00:43;;;;;;;41.85;22.05;;;0.20;99.90;;;;;;4986641;28;20565;-39
2022/01/11 09:03:10;;;;;;;40.08;21.73;;;0.30;99.90;;;;;;4991452;28;20136;-40
2022/01/11 09:05:37;;;;;;;39.63;21.08;;;0.30;99.90;;;;;;4988636;28;20446;-40
2022/01/11 09:08:04;;;;;;;44.25;22.85;;;0.30;99.90;;;;;;5004334;28;20050;-39
2022/01/11 09:10:31;;;;;;;39.22;22.02;;;0.30;99.90;;;;;;4990866;28;20056;-39
2022/01/11 09:13:00;;;;;;;46.90;22.55;;;0.30;99.90;;;;;;4985225;28;20047;-40
2022/01/11 09:15:27;;;;;;;46.20;22.65;;;0.30;99.90;;;;;;4987526;28;20448;-39
2022/01/11 09:17:55;;;;;;;46.50;22.38;;;0.30;99.90;;;;;;5002861;28;20402;-40
2022/01/11 09:20:22;;;;;;;46.58;23.00;;;0.30;99.90;;;;;;4992293;28;20081;-40
2022/01/11 09:22:49;;;;;;;50.03;23.65;;;0.40;99.90;;;;;;4969220;28;20894;-39
2022/01/11 09:25:16;;;;;;;45.22;22.02;;;0.40;99.90;;;;;;4991198;28;20270;-39
2022/01/11 09:27:43;;;;;;;41.38;22.75;;;0.40;99.90;;;;;;5007867;28;20046;-39
2022/01/11 09:30:13;;;;;;;48.42;23.10;;;0.50;99.90;;;;;;5002114;28;20112;-39
2022/01/11 09:32:41;;;;;;;42.70;21.75;;;0.50;99.90;;;;;;5017393;28;20136;-39
2022/01/11 09:35:09;;;;;;;45.70;22.95;;;0.50;99.90;;;;;;5017799;28;20053;-39
2022/01/11 09:37:36;;;;;;;51.58;24.35;;;0.50;99.90;;;;;;4999386;28;20401;-39
2022/01/11 09:40:04;;;;;;;56.60;26.30;;;0.50;99.90;;;;;;5002666;28;20132;-39
2022/01/11 09:42:31;;;;;;;52.67;25.38;;;0.60;99.90;;;;;;5001403;28;20449;-39
2022/01/11 09:44:59;;;;;;;45.42;24.40;;;0.70;99.90;;;;;;4995121;28;20038;-39
2022/01/11 09:47:28;;;;;;;45.33;23.17;;;0.60;99.90;;;;;;4994043;28;20061;-39
2022/01/11 09:49:55;;;;;;;47.25;24.50;;;0.60;99.90;;;;;;4998313;28;20453;-39
2022/01/11 09:52:23;;;;;;;48.00;24.45;;;0.70;99.90;;;;;;4998751;28;20061;-39
2022/01/11 09:54:50;;;;;;;46.85;24.45;;;0.70;99.90;;;;;;4995539;28;20042;-40
2022/01/11 09:57:17;;;;;;;48.22;24.60;;;0.70;99.90;;;;;;4998453;28;20057;-40
2022/01/11 09:59:45;;;;;;;43.65;23.75;;;0.70;99.90;;;;;;5010704;28;20053;-39
2022/01/11 10:02:12;;;;;;;49.00;24.77;;;0.80;99.90;;;;;;5001151;28;20406;-41
2022/01/11 10:04:40;;;;;;;46.28;23.95;;;0.80;99.90;;;;;;4993639;28;20053;-40
2022/01/11 10:07:08;;;;;;;45.70;23.58;;;0.80;99.90;;;;;;4998240;28;20558;-41
2022/01/11 10:09:43;;;;;;;47.67;24.42;;;0.80;99.90;;;;;;4980025;28;20077;-40
2022/01/11 10:12:12;;;;;;;43.50;23.13;;;0.80;99.90;;;;;;4996479;28;20834;-40
2022/01/11 10:14:39;;;;;;;43.15;23.35;;;0.90;99.90;;;;;;5017687;28;20442;-40
2022/01/11 10:17:12;;;;;;;44.88;22.85;;;0.90;99.90;;;;;;4998676;28;20542;-40
2022/01/11 10:19:41;;;;;;;41.80;22.92;;;0.90;99.90;;;;;;4996978;28;20057;-40
2022/01/11 10:22:09;;;;;;;48.75;24.08;;;1.00;99.90;;;;;;4999060;28;20069;-40
2022/01/11 10:24:39;;;;;;;43.03;24.30;;;1.00;99.90;;;;;;4985354;28;20073;-40
2022/01/11 10:27:08;;;;;;;44.85;23.83;;;1.00;99.90;;;;;;4981394;28;20051;-40
2022/01/11 10:29:37;;;;;;;52.30;25.88;;;1.00;99.90;;;;;;4972408;28;20055;-40
2022/01/11 10:32:23;;;;;;;45.78;24.13;;;1.00;99.90;;;;;;4969560;28;20133;-40
2022/01/11 10:34:53;;;;;;;42.78;23.52;;;1.10;99.90;;;;;;5000268;28;20085;-41
2022/01/11 10:37:29;;;;;;;41.75;24.33;;;1.10;99.90;;;;;;4990934;28;20056;-40
2022/01/11 10:40:08;;;;;;;45.35;23.40;;;1.10;99.90;;;;;;4987276;28;20043;-41
2022/01/11 10:42:38;;;;;;;40.22;21.95;;;1.20;99.90;;;;;;5002219;28;20502;-41
2022/01/11 10:45:06;;;;;;;44.72;23.27;;;1.20;99.90;;;;;;4989435;28;20065;-41
2022/01/11 10:47:35;;;;;;;43.83;23.67;;;1.20;99.90;;;;;;4994488;28;20506;-41
2022/01/11 10:50:06;;;;;;;44.58;24.30;;;1.20;99.90;;;;;;4993963;28;20098;-43
2022/01/11 10:52:34;;;;;;;41.47;22.60;;;1.30;99.90;;;;;;4992998;28;20042;-42
2022/01/11 10:55:02;;;;;;;44.50;21.73;;;1.30;99.90;;;;;;4990381;28;20731;-42
2022/01/11 10:57:30;;;;;;;42.13;22.95;;;1.40;99.90;;;;;;4991327;28;20089;-42
2022/01/11 11:00:25;;;;;;;44.45;23.38;;;1.40;99.90;;;;;;4992993;28;20450;-42
2022/01/11 11:02:55;;;;;;;42.10;23.17;;;1.40;99.90;;;;;;4989955;28;20050;-43
2022/01/11 11:05:25;;;;;;;41.75;22.70;;;1.50;99.90;;;;;;4996475;28;20046;-42
2022/01/11 11:08:07;;;;;;;39.85;22.08;;;1.60;99.90;;;;;;4989303;28;20078;-42
2022/01/11 11:10:43;;;;;;;41.13;22.67;;;1.70;99.90;;;;;;4989174;28;20058;-42
2022/01/11 11:13:11;;;;;;;39.08;21.20;;;1.80;99.90;;;;;;4998226;28;20049;-42
2022/01/11 11:15:39;;;;;;;38.80;21.60;;;1.80;99.90;;;;;;4993373;28;20057;-41
2022/01/11 11:18:07;;;;;;;38.63;22.65;;;1.80;99.90;;;;;;4993053;28;20078;-42
2022/01/11 11:20:37;;;;;;;36.92;20.30;;;1.80;99.90;;;;;;4993377;28;20140;-43
2022/01/11 11:23:04;;;;;;;39.88;21.38;;;1.80;99.90;;;;;;4998757;28;20077;-42
2022/01/11 11:25:32;;;;;;;39.42;21.67;;;1.80;99.90;;;;;;4992934;28;20514;-43
2022/01/11 11:27:59;;;;;;;38.15;20.40;;;1.80;99.90;;;;;;5001997;28;20046;-42
2022/01/11 11:30:26;;;;;;;33.38;20.15;;;1.90;99.90;;;;;;5021626;28;20089;-45
2022/01/11 11:32:53;;;;;;;39.58;21.08;;;1.90;99.90;;;;;;5008988;28;20473;-42
2022/01/11 11:35:20;;;;;;;43.00;22.50;;;1.90;99.90;;;;;;5002925;28;20483;-43
2022/01/11 11:37:49;;;;;;;37.17;20.27;;;2.00;99.90;;;;;;5018343;28;20057;-42
2022/01/11 11:40:17;;;;;;;37.88;19.27;;;2.10;99.90;;;;;;4994524;28;20495;-42
2022/01/11 11:42:44;;;;;;;40.72;20.70;;;2.30;99.90;;;;;;4995245;28;20121;-41
2022/01/11 11:45:19;;;;;;;41.50;21.15;;;2.40;99.90;;;;;;4993205;28;20073;-42
2022/01/11 11:47:46;;;;;;;41.85;21.05;;;2.50;99.90;;;;;;4991183;28;20397;-43
2022/01/11 11:50:15;;;;;;;32.97;17.60;;;2.70;99.90;;;;;;4989506;28;20438;-43
2022/01/11 11:52:44;;;;;;;33.03;17.85;;;2.70;99.90;;;;;;4992181;28;20132;-41
2022/01/11 11:55:17;;;;;;;36.33;19.20;;;2.80;99.90;;;;;;4991192;28;20402;-41
2022/01/11 11:57:44;;;;;;;34.30;19.23;;;2.90;99.90;;;;;;4991981;28;20084;-41
2022/01/11 12:00:15;;;;;;;34.50;17.23;;;3.00;99.90;;;;;;4992385;28;20136;-42
2022/01/11 12:02:43;;;;;;;41.67;19.92;;;3.20;99.90;;;;;;4987974;28;20466;-42
2022/01/11 12:05:11;;;;;;;32.50;19.42;;;3.20;99.90;;;;;;4972259;28;20058;-42
2022/01/11 12:07:41;;;;;;;31.08;18.13;;;3.40;99.90;;;;;;4980356;28;20042;-41
2022/01/11 12:10:13;;;;;;;33.25;19.70;;;3.50;99.90;;;;;;4995098;28;20065;-43
2022/01/11 12:12:49;;;;;;;36.90;18.92;;;3.60;99.90;;;;;;4978659;28;20057;-43
2022/01/11 12:15:38;;;;;;;31.00;17.92;;;3.80;99.90;;;;;;5005361;28;20113;-43
2022/01/11 12:18:15;;;;;;;34.67;17.85;;;3.80;99.90;;;;;;5006226;28;20054;-43
2022/01/11 12:20:50;;;;;;;37.92;18.83;;;3.90;99.90;;;;;;4993550;28;20054;-44
2022/01/11 12:23:21;;;;;;;36.95;17.65;;;3.80;99.90;;;;;;5017054;28;20085;-42
2022/01/11 12:25:52;;;;;;;31.42;16.65;;;3.90;99.90;;;;;;4998010;28;20112;-44
2022/01/11 12:28:22;;;;;;;37.08;17.95;;;3.90;99.90;;;;;;4992908;28;20089;-42
2022/01/11 12:30:49;;;;;;;31.65;16.70;;;3.90;99.90;;;;;;4986886;28;20112;-42
2022/01/11 12:33:17;;;;;;;35.17;17.67;;;3.80;99.90;;;;;;4998977;28;20054;-40
2022/01/11 12:35:58;;;;;;;32.70;16.80;;;3.80;99.90;;;;;;5001471;28;20075;-42
2022/01/11 12:38:26;;;;;;;34.10;18.00;;;3.80;99.90;;;;;;5018074;28;20476;-43
2022/01/11 12:40:53;;;;;;;36.35;17.58;;;3.70;99.90;;;;;;5020477;28;20645;-42